createdAt,value
2019-03-23T00:01:56.379Z,8.50
2019-03-23T00:04:25.402Z,8.35
2019-03-23T00:06:53.239Z,8.31
2019-03-23T00:09:20.804Z,8.37
2019-03-23T00:11:48.477Z,8.39
2019-03-23T00:14:18.364Z,8.32
2019-03-23T00:16:45.927Z,8.33
2019-03-23T00:19:13.231Z,8.19
2019-03-23T00:21:40.485Z,8.26
2019-03-23T00:24:07.787Z,8.24
2019-03-23T00:26:35.059Z,8.39
2019-03-23T00:29:02.509Z,8.34
2019-03-23T00:31:29.955Z,8.22
2019-03-23T00:33:57.238Z,8.23
2019-03-23T00:36:24.479Z,8.14
2019-03-23T00:38:51.933Z,8.08
2019-03-23T00:41:19.191Z,8.05
2019-03-23T00:43:46.899Z,7.88
2019-03-23T00:46:14.309Z,7.93
2019-03-23T00:48:42.002Z,7.99
2019-03-23T00:51:09.294Z,7.79
2019-03-23T00:53:36.558Z,7.80
2019-03-23T00:56:03.875Z,7.74
2019-03-23T00:58:31.131Z,7.72
2019-03-23T01:00:58.516Z,7.72
2019-03-23T01:03:27.855Z,7.75
2019-03-23T01:05:55.123Z,7.68
2019-03-23T01:08:22.673Z,7.66
2019-03-23T01:10:50.052Z,7.61
2019-03-23T01:13:17.570Z,7.47
2019-03-23T01:15:48.224Z,7.36
2019-03-23T01:18:16.440Z,7.30
2019-03-23T01:20:49.579Z,6.96
2019-03-23T01:23:15.431Z,6.97
2019-03-23T01:25:42.728Z,7.08
2019-03-23T01:28:10.113Z,7.25
2019-03-23T01:30:37.655Z,7.15
2019-03-23T01:33:05.063Z,7.28
2019-03-23T01:35:32.570Z,7.33
2019-03-23T01:37:59.990Z,7.09
2019-03-23T01:40:27.588Z,7.09
2019-03-23T01:42:54.995Z,7.06
2019-03-23T01:45:22.401Z,7.14
2019-03-23T01:47:49.740Z,7.14
2019-03-23T01:50:17.393Z,7.17
2019-03-23T01:52:44.706Z,7.17
2019-03-23T01:55:13.973Z,7.14
2019-03-23T01:57:42.417Z,7.19
2019-03-23T02:00:09.783Z,7.21
2019-03-23T02:02:37.049Z,7.31
2019-03-23T02:05:05.368Z,7.25
2019-03-23T02:07:32.771Z,7.26
2019-03-23T02:10:00.037Z,7.21
2019-03-23T02:12:27.317Z,6.89
2019-03-23T02:14:54.572Z,6.75
2019-03-23T02:17:22.182Z,6.70
2019-03-23T02:19:50.074Z,6.80
2019-03-23T02:22:17.457Z,6.79
2019-03-23T02:24:47.093Z,6.83
2019-03-23T02:27:14.376Z,6.70
2019-03-23T02:29:42.054Z,6.70
2019-03-23T02:32:09.737Z,6.65
2019-03-23T02:34:36.983Z,6.66
2019-03-23T02:37:04.285Z,6.81
2019-03-23T02:39:31.815Z,6.81
2019-03-23T02:41:59.219Z,6.75
2019-03-23T02:44:26.718Z,6.75
2019-03-23T02:46:53.978Z,6.58
2019-03-23T02:49:21.325Z,6.58
2019-03-23T02:51:48.636Z,6.65
2019-03-23T02:54:17.450Z,6.65
2019-03-23T02:56:44.825Z,6.48
2019-03-23T02:59:12.307Z,6.55
2019-03-23T03:01:39.553Z,6.53
2019-03-23T03:04:06.928Z,6.53
2019-03-23T03:06:34.381Z,6.47
2019-03-23T03:09:01.702Z,6.47
2019-03-23T03:11:29.148Z,6.24
2019-03-23T03:13:56.427Z,6.28
2019-03-23T03:16:27.491Z,6.28
2019-03-23T03:18:54.993Z,6.46
2019-03-23T03:21:23.581Z,6.42
2019-03-23T03:23:50.972Z,6.35
2019-03-23T03:26:18.593Z,6.35
2019-03-23T03:28:45.918Z,6.06
2019-03-23T03:31:13.197Z,6.19
2019-03-23T03:33:40.519Z,6.23
2019-03-23T03:36:07.771Z,6.32
2019-03-23T03:38:35.668Z,6.32
2019-03-23T03:41:02.947Z,6.18
2019-03-23T03:43:30.239Z,6.18
2019-03-23T03:46:00.013Z,6.19
2019-03-23T03:48:27.243Z,6.26
2019-03-23T03:50:54.537Z,6.26
2019-03-23T03:53:24.745Z,6.19
2019-03-23T03:55:52.096Z,6.16
2019-03-23T03:58:22.306Z,6.16
2019-03-23T04:00:49.715Z,6.23
2019-03-23T04:03:17.090Z,6.23
2019-03-23T04:05:46.626Z,6.16
2019-03-23T04:08:15.622Z,6.14
2019-03-23T04:10:42.914Z,6.10
2019-03-23T04:13:10.158Z,6.03
2019-03-23T04:15:37.688Z,6.02
2019-03-23T04:18:04.965Z,6.02
2019-03-23T04:20:32.246Z,5.93
2019-03-23T04:22:59.634Z,5.80
2019-03-23T04:25:29.885Z,5.74
2019-03-23T04:27:57.159Z,5.74
2019-03-23T04:30:24.552Z,5.75
2019-03-23T04:32:51.810Z,5.57
2019-03-23T04:35:19.083Z,5.57
2019-03-23T04:37:46.469Z,5.31
2019-03-23T04:40:14.197Z,5.25
2019-03-23T04:42:41.521Z,5.33
2019-03-23T04:45:08.890Z,5.33
2019-03-23T04:47:37.163Z,5.34
2019-03-23T04:50:04.909Z,5.36
2019-03-23T04:52:32.261Z,5.37
2019-03-23T04:54:59.670Z,5.37
2019-03-23T04:57:26.962Z,5.65
2019-03-23T04:59:54.263Z,5.42
2019-03-23T05:02:21.655Z,5.27
2019-03-23T05:04:48.943Z,5.28
2019-03-23T05:07:16.598Z,5.32
2019-03-23T05:09:43.888Z,5.32
2019-03-23T05:12:11.494Z,5.29
2019-03-23T05:14:38.784Z,5.36
2019-03-23T05:17:06.040Z,5.35
2019-03-23T05:19:33.672Z,5.32
2019-03-23T05:22:08.140Z,5.32
2019-03-23T05:24:35.550Z,5.27
2019-03-23T05:27:02.928Z,5.27
2019-03-23T05:29:30.236Z,5.22
2019-03-23T05:31:57.612Z,5.16
2019-03-23T05:34:24.905Z,5.16
2019-03-23T05:36:52.180Z,5.25
2019-03-23T05:39:19.542Z,5.08
2019-03-23T05:41:46.849Z,5.06
2019-03-23T05:44:14.172Z,5.30
2019-03-23T05:46:42.776Z,5.30
2019-03-23T05:49:10.170Z,5.35
2019-03-23T05:51:37.603Z,5.18
2019-03-23T05:54:04.904Z,5.17
2019-03-23T05:56:32.203Z,5.17
2019-03-23T05:58:59.696Z,5.17
2019-03-23T06:01:27.152Z,5.30
2019-03-23T06:03:54.450Z,5.37
2019-03-23T06:06:22.132Z,5.11
2019-03-23T06:08:54.908Z,5.11
2019-03-23T06:11:18.988Z,5.11
2019-03-23T06:13:47.443Z,5.15
2019-03-23T06:16:14.842Z,5.15
2019-03-23T06:18:42.136Z,5.09
2019-03-23T06:21:09.430Z,5.17
2019-03-23T06:23:36.776Z,5.27
2019-03-23T06:26:06.418Z,5.31
2019-03-23T06:28:34.460Z,5.25
2019-03-23T06:31:01.736Z,5.38
2019-03-23T06:33:29.002Z,5.37
2019-03-23T06:35:56.323Z,5.32
2019-03-23T06:38:23.640Z,5.39
2019-03-23T06:40:50.948Z,5.47
2019-03-23T06:43:18.250Z,5.62
2019-03-23T06:45:45.717Z,5.75
2019-03-23T06:48:13.014Z,5.82
2019-03-23T06:50:40.770Z,5.82
2019-03-23T06:53:08.070Z,5.90
2019-03-23T06:55:35.436Z,5.90
2019-03-23T06:58:02.842Z,6.00
2019-03-23T07:00:30.354Z,6.13
2019-03-23T07:02:57.650Z,6.24
2019-03-23T07:05:24.952Z,6.34
2019-03-23T07:07:52.224Z,6.41
2019-03-23T07:10:19.645Z,6.56
2019-03-23T07:12:46.914Z,6.66
2019-03-23T07:15:20.010Z,6.88
2019-03-23T07:17:44.167Z,6.88
2019-03-23T07:20:11.577Z,6.98
2019-03-23T07:22:38.991Z,6.98
2019-03-23T07:25:08.454Z,7.02
2019-03-23T07:27:36.574Z,7.17
2019-03-23T07:30:05.799Z,7.37
2019-03-23T07:32:33.050Z,7.64
2019-03-23T07:35:00.437Z,7.64
2019-03-23T07:37:27.716Z,7.70
2019-03-23T07:39:55.091Z,7.78
2019-03-23T07:42:22.387Z,7.78
2019-03-23T07:44:49.635Z,7.92
2019-03-23T07:47:17.000Z,8.10
2019-03-23T07:49:44.632Z,8.21
2019-03-23T07:52:11.909Z,8.40
2019-03-23T07:54:39.215Z,8.57
2019-03-23T07:57:06.509Z,8.74
2019-03-23T07:59:33.814Z,8.82
2019-03-23T08:02:02.032Z,8.89
2019-03-23T08:04:29.315Z,8.98
2019-03-23T08:06:56.673Z,9.19
2019-03-23T08:09:23.993Z,9.44
2019-03-23T08:11:51.389Z,9.50
2019-03-23T08:14:19.892Z,9.61
2019-03-23T08:16:47.415Z,9.74
2019-03-23T08:19:14.854Z,9.85
2019-03-23T08:21:42.125Z,10.04
2019-03-23T08:24:09.461Z,10.17
2019-03-23T08:26:36.827Z,10.08
2019-03-23T08:29:04.244Z,9.98
2019-03-23T08:31:31.638Z,9.94
2019-03-23T08:34:00.389Z,10.17
2019-03-23T08:36:27.775Z,10.44
2019-03-23T08:38:56.138Z,10.71
2019-03-23T08:41:23.779Z,10.86
2019-03-23T08:43:52.713Z,11.06
2019-03-23T08:46:22.590Z,11.19
2019-03-23T08:48:50.293Z,11.33
2019-03-23T08:51:18.528Z,11.48
2019-03-23T08:53:45.989Z,11.65
2019-03-23T08:56:13.687Z,11.84
2019-03-23T08:58:39.681Z,11.81
2019-03-23T09:01:06.942Z,11.98
2019-03-23T09:03:34.217Z,12.09
2019-03-23T09:06:01.655Z,12.07
2019-03-23T09:08:29.497Z,12.04
2019-03-23T09:10:56.768Z,12.22
2019-03-23T09:13:24.168Z,12.37
2019-03-23T09:15:51.693Z,12.53
2019-03-23T09:18:23.143Z,12.67
2019-03-23T09:20:52.917Z,12.81
2019-03-23T09:23:22.755Z,12.92
2019-03-23T09:25:50.113Z,13.02
2019-03-23T09:28:18.627Z,13.12
2019-03-23T09:30:47.999Z,13.18
2019-03-23T09:33:15.442Z,13.30
2019-03-23T09:35:42.957Z,13.42
2019-03-23T09:38:10.784Z,13.55
2019-03-23T09:40:40.341Z,13.59
2019-03-23T09:43:07.643Z,13.64
2019-03-23T09:45:34.933Z,13.77
2019-03-23T09:48:02.278Z,13.84
2019-03-23T09:50:29.607Z,13.96
2019-03-23T09:53:01.073Z,14.13
2019-03-23T09:55:28.796Z,14.19
2019-03-23T09:57:56.305Z,14.24
2019-03-23T10:00:23.766Z,14.32
2019-03-23T10:02:51.289Z,14.43
2019-03-23T10:05:18.547Z,14.34
2019-03-23T10:07:45.836Z,14.33
2019-03-23T10:10:21.340Z,14.35
2019-03-23T10:12:44.607Z,14.57
2019-03-23T10:15:12.119Z,14.69
2019-03-23T10:17:39.805Z,14.80
2019-03-23T10:20:07.448Z,14.94
2019-03-23T10:22:35.045Z,15.05
2019-03-23T10:25:04.719Z,15.22
2019-03-23T10:27:32.507Z,15.16
2019-03-23T10:29:59.901Z,15.30
2019-03-23T10:32:27.646Z,15.44
2019-03-23T10:34:57.121Z,15.62
2019-03-23T10:37:26.114Z,15.69
2019-03-23T10:39:53.676Z,15.60
2019-03-23T10:42:21.029Z,15.62
2019-03-23T10:44:48.593Z,15.87
2019-03-23T10:47:21.056Z,16.02
2019-03-23T10:49:50.999Z,16.11
2019-03-23T10:52:18.976Z,16.17
2019-03-23T10:54:57.376Z,16.15
2019-03-23T10:57:25.228Z,16.15
2019-03-23T10:59:52.588Z,16.27
2019-03-23T11:02:19.896Z,16.47
2019-03-23T11:04:47.297Z,16.59
2019-03-23T11:07:15.500Z,16.70
2019-03-23T11:09:43.289Z,16.56
2019-03-23T11:12:17.109Z,16.65
2019-03-23T11:14:47.912Z,16.87
2019-03-23T11:17:16.245Z,16.75
2019-03-23T11:19:46.661Z,16.85
2019-03-23T11:22:25.125Z,16.92
2019-03-23T11:24:55.373Z,16.91
2019-03-23T11:27:23.013Z,16.98
2019-03-23T11:29:52.985Z,17.07
2019-03-23T11:32:27.653Z,17.30
2019-03-23T11:35:00.903Z,17.32
2019-03-23T11:37:31.341Z,17.26
2019-03-23T11:40:03.575Z,17.47
2019-03-23T11:42:31.501Z,17.55
2019-03-23T11:44:59.467Z,17.42
2019-03-23T11:47:31.283Z,17.69
2019-03-23T11:50:07.305Z,17.79
2019-03-23T11:52:39.841Z,17.96
2019-03-23T11:55:12.412Z,17.94
2019-03-23T11:57:44.469Z,17.90
2019-03-23T12:00:17.072Z,17.76
2019-03-23T12:02:44.691Z,17.64
2019-03-23T12:05:12.076Z,17.93
2019-03-23T12:07:42.613Z,18.20
2019-03-23T12:10:20.477Z,18.41
2019-03-23T12:12:54.899Z,18.53
2019-03-23T12:15:24.899Z,18.72
2019-03-23T12:17:52.594Z,18.77
2019-03-23T12:20:22.863Z,18.63
2019-03-23T12:22:57.933Z,18.43
2019-03-23T12:25:28.972Z,18.27
2019-03-23T12:28:09.100Z,18.57
2019-03-23T12:30:39.066Z,18.87
2019-03-23T12:33:10.209Z,18.98
2019-03-23T12:35:38.878Z,19.09
2019-03-23T12:38:06.241Z,19.28
2019-03-23T12:40:33.635Z,19.30
2019-03-23T12:43:04.273Z,19.52
2019-03-23T12:45:32.861Z,19.30
2019-03-23T12:48:06.593Z,19.09
2019-03-23T12:50:36.486Z,19.16
2019-03-23T12:53:06.949Z,19.11
2019-03-23T12:55:43.063Z,19.27
2019-03-23T12:58:22.854Z,19.61
2019-03-23T13:01:01.893Z,19.94
2019-03-23T13:03:39.350Z,20.21
2019-03-23T13:06:17.071Z,20.29
2019-03-23T13:08:47.379Z,20.40
2019-03-23T13:11:23.286Z,20.58
2019-03-23T13:13:45.335Z,20.23
2019-03-23T13:16:12.573Z,20.18
2019-03-23T13:18:39.874Z,20.43
2019-03-23T13:21:07.811Z,20.78
2019-03-23T13:23:35.367Z,20.77
2019-03-23T13:26:03.451Z,20.91
2019-03-23T13:28:30.778Z,20.86
2019-03-23T13:30:59.997Z,20.96
2019-03-23T13:33:27.274Z,21.15
2019-03-23T13:35:54.638Z,21.33
2019-03-23T13:38:21.995Z,21.40
2019-03-23T13:40:49.297Z,21.37
2019-03-23T13:43:16.550Z,21.63
2019-03-23T13:45:43.940Z,21.85
2019-03-23T13:48:11.432Z,21.89
2019-03-23T13:50:38.708Z,21.85
2019-03-23T13:53:06.018Z,21.79
2019-03-23T13:55:33.730Z,21.05
2019-03-23T13:58:08.613Z,21.35
2019-03-23T14:00:35.972Z,21.00
2019-03-23T14:03:03.641Z,21.16
2019-03-23T14:05:30.897Z,20.83
2019-03-23T14:07:58.276Z,21.15
2019-03-23T14:10:28.012Z,21.53
2019-03-23T14:12:55.431Z,21.06
2019-03-23T14:15:23.494Z,21.58
2019-03-23T14:17:50.780Z,21.99
2019-03-23T14:20:20.460Z,21.86
2019-03-23T14:22:47.635Z,21.98
2019-03-23T14:25:14.884Z,21.93
2019-03-23T14:27:42.175Z,22.34
2019-03-23T14:30:09.475Z,22.64
2019-03-23T14:32:36.753Z,22.51
2019-03-23T14:35:04.324Z,22.13
2019-03-23T14:37:31.742Z,21.96
2019-03-23T14:39:58.997Z,22.42
2019-03-23T14:42:26.969Z,22.75
2019-03-23T14:44:57.519Z,23.10
2019-03-23T14:47:24.797Z,22.84
2019-03-23T14:49:52.134Z,21.94
2019-03-23T14:52:19.707Z,21.73
2019-03-23T14:54:46.979Z,21.52
2019-03-23T14:57:14.991Z,21.87
2019-03-23T14:59:42.756Z,21.77
2019-03-23T15:02:10.408Z,21.68
2019-03-23T15:04:37.897Z,22.18
2019-03-23T15:07:05.378Z,22.35
2019-03-23T15:09:33.132Z,21.97
2019-03-23T15:12:02.818Z,22.54
2019-03-23T15:14:30.557Z,23.18
2019-03-23T15:17:00.100Z,23.39
2019-03-23T15:19:27.686Z,23.61
2019-03-23T15:21:55.161Z,23.78
2019-03-23T15:24:22.982Z,23.31
2019-03-23T15:26:53.179Z,23.33
2019-03-23T15:29:22.572Z,22.40
2019-03-23T15:31:50.074Z,22.35
2019-03-23T15:34:17.866Z,21.86
2019-03-23T15:36:45.135Z,21.63
2019-03-23T15:39:12.392Z,21.65
2019-03-23T15:41:39.930Z,21.35
2019-03-23T15:44:07.201Z,20.96
2019-03-23T15:46:34.494Z,20.33
2019-03-23T15:49:01.753Z,20.21
2019-03-23T15:51:29.120Z,19.91
2019-03-23T15:53:58.522Z,19.88
2019-03-23T15:56:25.869Z,19.82
2019-03-23T15:58:53.145Z,19.63
2019-03-23T16:01:23.308Z,19.39
2019-03-23T16:03:50.621Z,19.19
2019-03-23T16:06:18.158Z,18.86
2019-03-23T16:08:45.547Z,18.52
2019-03-23T16:11:12.804Z,18.51
2019-03-23T16:13:40.604Z,18.90
2019-03-23T16:16:08.018Z,18.93
2019-03-23T16:18:35.422Z,18.68
2019-03-23T16:21:02.804Z,18.41
2019-03-23T16:23:30.450Z,18.24
2019-03-23T16:25:57.771Z,18.17
2019-03-23T16:28:25.366Z,18.10
2019-03-23T16:30:52.716Z,18.19
2019-03-23T16:33:21.924Z,17.83
2019-03-23T16:35:49.583Z,17.57
2019-03-23T16:38:16.933Z,17.55
2019-03-23T16:40:44.785Z,17.28
2019-03-23T16:43:12.156Z,17.17
2019-03-23T16:45:39.929Z,17.16
2019-03-23T16:48:07.230Z,17.05
2019-03-23T16:50:34.708Z,17.15
2019-03-23T16:53:01.990Z,17.17
2019-03-23T16:55:29.236Z,16.94
2019-03-23T16:57:56.492Z,16.90
2019-03-23T17:00:34.212Z,16.76
2019-03-23T17:03:02.504Z,16.75
2019-03-23T17:05:30.488Z,17.06
2019-03-23T17:07:57.776Z,17.15
2019-03-23T17:10:25.460Z,16.80
2019-03-23T17:12:55.527Z,16.58
2019-03-23T17:15:21.914Z,16.42
2019-03-23T17:17:49.163Z,16.30
2019-03-23T17:20:16.471Z,16.14
2019-03-23T17:22:43.786Z,16.16
2019-03-23T17:25:11.035Z,16.04
2019-03-23T17:27:39.578Z,15.85
2019-03-23T17:30:09.557Z,15.82
2019-03-23T17:32:39.646Z,15.80
2019-03-23T17:35:07.027Z,15.68
2019-03-23T17:37:34.324Z,15.61
2019-03-23T17:40:01.650Z,15.70
2019-03-23T17:42:28.946Z,15.64
2019-03-23T17:44:56.224Z,15.75
2019-03-23T17:47:23.490Z,15.76
2019-03-23T17:49:50.762Z,15.60
2019-03-23T17:52:18.046Z,15.47
2019-03-23T17:54:45.290Z,15.56
2019-03-23T17:57:12.549Z,15.62
2019-03-23T17:59:39.868Z,15.18
2019-03-23T18:02:07.406Z,15.13
2019-03-23T18:04:36.761Z,15.01
2019-03-23T18:07:05.379Z,15.10
2019-03-23T18:09:33.089Z,8.79
2019-03-23T18:12:03.806Z,14.90
2019-03-23T18:14:31.542Z,14.76
2019-03-23T18:16:58.788Z,14.71
2019-03-23T18:19:26.774Z,14.49
2019-03-23T18:21:54.582Z,14.71
2019-03-23T18:24:22.014Z,14.49
2019-03-23T18:26:49.619Z,14.48
2019-03-23T18:29:16.866Z,14.44
2019-03-23T18:31:44.452Z,14.46
2019-03-23T18:34:12.066Z,14.37
2019-03-23T18:36:39.539Z,14.14
2019-03-23T18:39:07.376Z,14.00
2019-03-23T18:41:38.038Z,13.93
2019-03-23T18:44:15.609Z,14.00
2019-03-23T18:46:38.816Z,14.02
2019-03-23T18:49:06.026Z,13.93
2019-03-23T18:51:33.467Z,13.95
2019-03-23T18:54:00.742Z,14.00
2019-03-23T18:56:29.385Z,13.99
2019-03-23T18:58:57.116Z,13.78
2019-03-23T19:01:27.589Z,13.82
2019-03-23T19:03:56.448Z,13.76
2019-03-23T19:06:24.257Z,13.66
2019-03-23T19:08:51.548Z,13.54
2019-03-23T19:11:28.633Z,13.51
2019-03-23T19:13:56.091Z,13.68
2019-03-23T19:16:25.069Z,13.64
2019-03-23T19:18:52.516Z,13.44
2019-03-23T19:21:23.497Z,13.20
2019-03-23T19:23:54.173Z,13.09
2019-03-23T19:26:23.104Z,12.97
2019-03-23T19:28:50.540Z,12.88
2019-03-23T19:31:21.052Z,12.88
2019-03-23T19:33:51.142Z,12.80
2019-03-23T19:36:20.548Z,12.72
2019-03-23T19:38:47.858Z,12.67
2019-03-23T19:41:16.319Z,12.58
2019-03-23T19:43:49.786Z,12.53
2019-03-23T19:46:13.994Z,12.43
2019-03-23T19:48:41.244Z,12.65
2019-03-23T19:51:08.517Z,12.78
2019-03-23T19:53:36.800Z,12.79
2019-03-23T19:56:04.830Z,12.63
2019-03-23T19:58:32.213Z,12.56
2019-03-23T20:01:00.496Z,12.59
2019-03-23T20:03:30.329Z,12.48
2019-03-23T20:05:58.001Z,12.53
2019-03-23T20:08:25.732Z,12.40
2019-03-23T20:10:52.978Z,12.27
2019-03-23T20:13:29.840Z,12.21
2019-03-23T20:16:00.115Z,12.07
2019-03-23T20:18:27.568Z,12.04
2019-03-23T20:20:55.724Z,11.99
2019-03-23T20:23:25.021Z,11.93
2019-03-23T20:25:57.934Z,12.12
2019-03-23T20:28:31.088Z,12.30
2019-03-23T20:31:00.088Z,12.38
2019-03-23T20:33:27.486Z,12.37
2019-03-23T20:35:55.587Z,12.27
2019-03-23T20:38:24.293Z,12.28
2019-03-23T20:40:51.935Z,12.36
2019-03-23T20:43:19.493Z,12.39
2019-03-23T20:45:51.909Z,12.41
2019-03-23T20:48:20.235Z,12.45
2019-03-23T20:50:48.025Z,12.32
2019-03-23T20:53:26.847Z,12.30
2019-03-23T20:55:56.445Z,12.29
2019-03-23T20:58:26.257Z,12.27
2019-03-23T21:00:58.768Z,12.26
2019-03-23T21:03:28.944Z,12.23
2019-03-23T21:05:56.403Z,12.21
2019-03-23T21:08:28.749Z,12.21
2019-03-23T21:10:58.289Z,12.22
2019-03-23T21:13:25.627Z,12.19
2019-03-23T21:15:55.505Z,12.14
2019-03-23T21:18:23.674Z,12.02
2019-03-23T21:20:53.567Z,11.97
2019-03-23T21:23:22.747Z,11.86
2019-03-23T21:25:50.088Z,11.86
2019-03-23T21:28:21.865Z,11.91
2019-03-23T21:30:53.887Z,11.99
2019-03-23T21:33:32.106Z,11.97
2019-03-23T21:36:01.710Z,11.83
2019-03-23T21:38:31.539Z,11.57
2019-03-23T21:41:01.728Z,11.43
2019-03-23T21:43:32.797Z,11.45
2019-03-23T21:46:08.940Z,11.37
2019-03-23T21:48:38.739Z,11.31
2019-03-23T21:51:08.406Z,11.18
2019-03-23T21:53:38.911Z,11.17
2019-03-23T21:56:09.658Z,11.07
2019-03-23T21:58:39.334Z,10.95
2019-03-23T22:01:14.187Z,10.82
2019-03-23T22:03:44.221Z,10.73
2019-03-23T22:06:12.676Z,10.74
2019-03-23T22:08:42.363Z,10.62
2019-03-23T22:11:12.597Z,10.54
2019-03-23T22:13:46.129Z,10.59
2019-03-23T22:16:17.433Z,10.65
2019-03-23T22:18:56.912Z,10.55
2019-03-23T22:21:26.945Z,10.48
2019-03-23T22:23:55.607Z,10.41
2019-03-23T22:26:22.999Z,10.43
2019-03-23T22:28:53.479Z,10.39
2019-03-23T22:31:21.259Z,10.31
2019-03-23T22:33:50.231Z,10.24
2019-03-23T22:36:19.737Z,10.22
2019-03-23T22:38:48.823Z,10.20
2019-03-23T22:41:16.893Z,10.25
2019-03-23T22:43:44.180Z,10.02
2019-03-23T22:46:11.933Z,10.01
2019-03-23T22:48:42.346Z,10.06
2019-03-23T22:51:10.851Z,9.97
2019-03-23T22:53:40.622Z,9.89
2019-03-23T22:56:12.640Z,9.93
2019-03-23T22:58:48.527Z,9.64
2019-03-23T23:01:15.811Z,9.67
2019-03-23T23:03:44.807Z,10.00
2019-03-23T23:06:21.956Z,9.91
2019-03-23T23:08:59.197Z,9.89
2019-03-23T23:11:27.087Z,9.72
2019-03-23T23:13:54.528Z,9.55
2019-03-23T23:16:25.854Z,9.45
2019-03-23T23:18:53.235Z,9.47
2019-03-23T23:21:20.498Z,9.40
2019-03-23T23:23:47.837Z,9.28
2019-03-23T23:26:15.300Z,9.28
2019-03-23T23:28:42.734Z,9.34
2019-03-23T23:31:10.601Z,9.19
2019-03-23T23:33:38.044Z,9.15
2019-03-23T23:36:05.327Z,9.16
2019-03-23T23:38:32.656Z,9.13
2019-03-23T23:41:01.432Z,9.05
2019-03-23T23:43:28.919Z,8.98
2019-03-23T23:45:56.234Z,8.94
2019-03-23T23:48:23.550Z,8.95
2019-03-23T23:50:50.929Z,8.90
2019-03-23T23:53:18.788Z,8.85
2019-03-23T23:55:46.616Z,8.92
2019-03-23T23:58:14.105Z,8.85
